sensor_id;sensor_type;location;lat;lon;timestamp;pressure;altitude;pressure_sealevel;temperature;humidity
65534;BME280;53640;55.838;37.184;2023-08-01T00:00:10;98589.34;;;17.44;52.14
65534;BME280;53640;55.838;37.184;2023-08-01T00:02:40;98580.38;;;17.39;51.88
65534;BME280;53640;55.838;37.184;2023-08-01T00:05:10;98538.38;;;17.09;52.39
65534;BME280;53640;55.838;37.184;2023-08-01T00:07:37;98585.34;;;17.32;52.00
65534;BME280;53640;55.838;37.184;2023-08-01T00:10:03;98568.44;;;17.19;52.53
65534;BME280;53640;55.838;37.184;2023-08-01T00:12:33;98543.84;;;17.04;52.54
65534;BME280;53640;55.838;37.184;2023-08-01T00:15:00;98551.53;;;17.02;52.55
65534;BME280;53640;55.838;37.184;2023-08-01T00:17:26;98562.97;;;17.09;52.87
65534;BME280;53640;55.838;37.184;2023-08-01T00:19:53;98589.47;;;17.19;52.84
65534;BME280;53640;55.838;37.184;2023-08-01T00:22:21;98546.66;;;16.94;52.66
65534;BME280;53640;55.838;37.184;2023-08-01T00:24:47;98555.94;;;16.93;53.48
65534;BME280;53640;55.838;37.184;2023-08-01T00:27:14;98571.78;;;17.01;52.70
65534;BME280;53640;55.838;37.184;2023-08-01T00:29:42;98582.72;;;17.01;53.04
65534;BME280;53640;55.838;37.184;2023-08-01T00:32:41;98581.06;;;17.00;53.60
65534;BME280;53640;55.838;37.184;2023-08-01T00:35:42;98491.63;;;16.41;53.39
65534;BME280;53640;55.838;37.184;2023-08-01T00:38:21;98597.44;;;17.00;53.70
65534;BME280;53640;55.838;37.184;2023-08-01T00:41:29;98592.84;;;16.90;53.99
65534;BME280;53640;55.838;37.184;2023-08-01T00:44:54;98595.31;;;16.87;53.66
65534;BME280;53640;55.838;37.184;2023-08-01T00:48:00;98554.94;;;16.58;54.18
65534;BME280;53640;55.838;37.184;2023-08-01T00:50:26;98573.00;;;16.59;54.47
65534;BME280;53640;55.838;37.184;2023-08-01T00:52:53;98596.72;;;16.74;54.22
65534;BME280;53640;55.838;37.184;2023-08-01T00:55:21;98602.19;;;16.69;54.25
65534;BME280;53640;55.838;37.184;2023-08-01T00:57:54;98570.00;;;16.45;54.82
65534;BME280;53640;55.838;37.184;2023-08-01T01:00:34;98587.75;;;16.53;55.00
65534;BME280;53640;55.838;37.184;2023-08-01T01:03:31;98575.47;;;16.45;54.76
65534;BME280;53640;55.838;37.184;2023-08-01T01:06:34;98612.06;;;16.60;55.07
65534;BME280;53640;55.838;37.184;2023-08-01T01:09:17;98618.09;;;16.51;55.31
65534;BME280;53640;55.838;37.184;2023-08-01T01:11:44;98595.97;;;16.38;55.55
65534;BME280;53640;55.838;37.184;2023-08-01T01:14:11;98603.63;;;16.41;55.78
65534;BME280;53640;55.838;37.184;2023-08-01T01:16:37;98577.66;;;16.23;56.19
65534;BME280;53640;55.838;37.184;2023-08-01T01:19:07;98583.41;;;16.21;55.80
65534;BME280;53640;55.838;37.184;2023-08-01T01:21:35;98612.63;;;16.41;56.07
65534;BME280;53640;55.838;37.184;2023-08-01T01:24:05;98598.13;;;16.30;56.21
65534;BME280;53640;55.838;37.184;2023-08-01T01:26:33;98560.16;;;16.14;55.73
65534;BME280;53640;55.838;37.184;2023-08-01T01:29:05;98517.34;;;15.89;56.14
65534;BME280;53640;55.838;37.184;2023-08-01T01:31:38;98608.81;;;16.42;56.04
65534;BME280;53640;55.838;37.184;2023-08-01T01:34:33;98600.59;;;16.42;55.52
65534;BME280;53640;55.838;37.184;2023-08-01T01:37:00;98600.06;;;16.40;55.62
65534;BME280;53640;55.838;37.184;2023-08-01T01:39:28;98547.34;;;16.04;55.52
65534;BME280;53640;55.838;37.184;2023-08-01T01:41:57;98577.38;;;16.29;54.96
65534;BME280;53640;55.838;37.184;2023-08-01T01:44:25;98608.50;;;16.54;54.96
65534;BME280;53640;55.838;37.184;2023-08-01T01:46:51;98617.00;;;16.63;54.83
65534;BME280;53640;55.838;37.184;2023-08-01T01:49:43;98615.03;;;16.68;54.61
65534;BME280;53640;55.838;37.184;2023-08-01T01:52:46;98625.44;;;16.71;54.03
65534;BME280;53640;55.838;37.184;2023-08-01T01:55:21;98606.59;;;16.60;54.04
65534;BME280;53640;55.838;37.184;2023-08-01T01:57:53;98578.19;;;16.50;53.82
65534;BME280;53640;55.838;37.184;2023-08-01T02:00:21;98571.91;;;16.50;54.14
65534;BME280;53640;55.838;37.184;2023-08-01T02:02:47;98517.03;;;16.16;53.77
65534;BME280;53640;55.838;37.184;2023-08-01T02:05:13;98546.25;;;16.36;53.75
65534;BME280;53640;55.838;37.184;2023-08-01T02:07:40;98573.53;;;16.61;53.79
65534;BME280;53640;55.838;37.184;2023-08-01T02:10:07;98578.44;;;16.64;53.24
65534;BME280;53640;55.838;37.184;2023-08-01T02:12:36;98581.16;;;16.69;53.27
65534;BME280;53640;55.838;37.184;2023-08-01T02:15:09;98493.28;;;16.21;53.17
65534;BME280;53640;55.838;37.184;2023-08-01T02:17:36;98586.06;;;16.82;53.08
65534;BME280;53640;55.838;37.184;2023-08-01T02:20:24;98576.78;;;16.78;53.17
65534;BME280;53640;55.838;37.184;2023-08-01T02:22:50;98603.50;;;16.97;52.83
65534;BME280;53640;55.838;37.184;2023-08-01T02:25:18;98595.28;;;17.02;53.29
65534;BME280;53640;55.838;37.184;2023-08-01T02:27:46;98614.66;;;17.11;53.00
65534;BME280;53640;55.838;37.184;2023-08-01T02:30:12;98582.72;;;16.96;53.24
65534;BME280;53640;55.838;37.184;2023-08-01T02:32:40;98552.97;;;16.74;53.15
65534;BME280;53640;55.838;37.184;2023-08-01T02:35:06;98586.56;;;16.95;53.21
65534;BME280;53640;55.838;37.184;2023-08-01T02:37:34;98568.78;;;16.92;52.92
65534;BME280;53640;55.838;37.184;2023-08-01T02:40:03;98618.50;;;17.20;52.82
65534;BME280;53640;55.838;37.184;2023-08-01T02:42:34;98582.72;;;17.01;52.82
65534;BME280;53640;55.838;37.184;2023-08-01T02:45:03;98602.63;;;17.17;52.87
65534;BME280;53640;55.838;37.184;2023-08-01T02:47:34;98613.28;;;17.23;52.93
65534;BME280;53640;55.838;37.184;2023-08-01T02:50:02;98584.03;;;17.09;52.64
65534;BME280;53640;55.838;37.184;2023-08-01T02:52:31;98607.22;;;17.26;52.48
65534;BME280;53640;55.838;37.184;2023-08-01T02:54:59;98615.69;;;17.30;52.60
65534;BME280;53640;55.838;37.184;2023-08-01T02:57:25;98612.13;;;17.35;52.52
65534;BME280;53640;55.838;37.184;2023-08-01T02:59:52;98578.53;;;17.19;52.51
65534;BME280;53640;55.838;37.184;2023-08-01T03:02:20;98584.25;;;17.22;52.38
65534;BME280;53640;55.838;37.184;2023-08-01T03:04:47;98614.28;;;17.43;52.17
65534;BME280;53640;55.838;37.184;2023-08-01T03:07:14;98567.91;;;17.17;52.06
65534;BME280;53640;55.838;37.184;2023-08-01T03:09:41;98570.88;;;17.21;52.34
65534;BME280;53640;55.838;37.184;2023-08-01T03:12:08;98614.53;;;17.46;51.91
65534;BME280;53640;55.838;37.184;2023-08-01T03:14:35;98554.22;;;17.07;51.93
65534;BME280;53640;55.838;37.184;2023-08-01T03:17:01;98595.72;;;17.29;52.15
65534;BME280;53640;55.838;37.184;2023-08-01T03:19:29;98608.28;;;17.36;52.37
65534;BME280;53640;55.838;37.184;2023-08-01T03:21:57;98630.66;;;17.53;52.25
65534;BME280;53640;55.838;37.184;2023-08-01T03:24:25;98634.47;;;17.57;52.21
65534;BME280;53640;55.838;37.184;2023-08-01T03:26:51;98613.97;;;17.44;51.93
65534;BME280;53640;55.838;37.184;2023-08-01T03:29:18;98585.03;;;17.33;52.36
65534;BME280;53640;55.838;37.184;2023-08-01T03:31:45;98588.31;;;17.35;52.25
65534;BME280;53640;55.838;37.184;2023-08-01T03:34:13;98623.50;;;17.57;51.96
65534;BME280;53640;55.838;37.184;2023-08-01T03:36:40;98598.38;;;17.45;51.83
65534;BME280;53640;55.838;37.184;2023-08-01T03:39:06;98612.06;;;17.50;51.95
65534;BME280;53640;55.838;37.184;2023-08-01T03:41:32;98628.91;;;17.67;52.08
65534;BME280;53640;55.838;37.184;2023-08-01T03:43:59;98636.56;;;17.75;52.27
65534;BME280;53640;55.838;37.184;2023-08-01T03:46:25;98640.63;;;17.78;52.24
65534;BME280;53640;55.838;37.184;2023-08-01T03:48:52;98604.06;;;17.59;52.29
65534;BME280;53640;55.838;37.184;2023-08-01T03:51:20;98645.53;;;17.81;51.84
65534;BME280;53640;55.838;37.184;2023-08-01T03:53:47;98637.13;;;17.72;51.77
65534;BME280;53640;55.838;37.184;2023-08-01T03:56:13;98641.69;;;17.82;52.09
65534;BME280;53640;55.838;37.184;2023-08-01T03:58:40;98623.44;;;17.67;52.08
65534;BME280;53640;55.838;37.184;2023-08-01T04:01:08;98620.75;;;17.62;51.82
65534;BME280;53640;55.838;37.184;2023-08-01T04:03:34;98669.88;;;17.93;51.96
65534;BME280;53640;55.838;37.184;2023-08-01T04:06:02;98668.50;;;17.95;52.08
65534;BME280;53640;55.838;37.184;2023-08-01T04:08:29;98674.22;;;17.99;52.09
65534;BME280;53640;55.838;37.184;2023-08-01T04:10:56;98669.81;;;17.98;51.77
65534;BME280;53640;55.838;37.184;2023-08-01T04:13:22;98669.50;;;18.05;51.85
65534;BME280;53640;55.838;37.184;2023-08-01T04:15:50;98657.53;;;17.95;51.88
65534;BME280;53640;55.838;37.184;2023-08-01T04:18:17;98632.91;;;17.85;52.04
65534;BME280;53640;55.838;37.184;2023-08-01T04:20:44;98673.56;;;18.12;52.21
65534;BME280;53640;55.838;37.184;2023-08-01T04:23:10;98672.50;;;18.13;52.45
65534;BME280;53640;55.838;37.184;2023-08-01T04:25:40;98617.59;;;17.84;52.11
65534;BME280;53640;55.838;37.184;2023-08-01T04:28:07;98666.41;;;18.21;52.05
65534;BME280;53640;55.838;37.184;2023-08-01T04:30:34;98610.72;;;17.87;51.98
65534;BME280;53640;55.838;37.184;2023-08-01T04:33:02;98676.19;;;18.27;52.08
65534;BME280;53640;55.838;37.184;2023-08-01T04:35:28;98651.91;;;18.16;51.90
65534;BME280;53640;55.838;37.184;2023-08-01T04:37:55;98673.38;;;18.38;52.45
65534;BME280;53640;55.838;37.184;2023-08-01T04:40:21;98658.63;;;18.34;52.12
65534;BME280;53640;55.838;37.184;2023-08-01T04:42:47;98607.09;;;18.01;52.36
65534;BME280;53640;55.838;37.184;2023-08-01T04:45:14;98675.19;;;18.52;52.04
65534;BME280;53640;55.838;37.184;2023-08-01T04:47:43;98632.91;;;18.30;51.94
65534;BME280;53640;55.838;37.184;2023-08-01T04:50:11;98598.84;;;18.07;51.80
65534;BME280;53640;55.838;37.184;2023-08-01T04:52:37;98633.38;;;18.37;52.17
65534;BME280;53640;55.838;37.184;2023-08-01T04:55:05;98644.22;;;18.52;52.00
65534;BME280;53640;55.838;37.184;2023-08-01T04:57:31;98648.25;;;18.60;51.56
65534;BME280;53640;55.838;37.184;2023-08-01T04:59:59;98674.13;;;18.83;51.89
65534;BME280;53640;55.838;37.184;2023-08-01T05:02:26;98654.69;;;18.79;51.49
65534;BME280;53640;55.838;37.184;2023-08-01T05:04:52;98646.69;;;18.83;51.30
65534;BME280;53640;55.838;37.184;2023-08-01T05:07:19;98684.06;;;19.03;51.09
65534;BME280;53640;55.838;37.184;2023-08-01T05:09:52;98572.81;;;18.38;50.92
65534;BME280;53640;55.838;37.184;2023-08-01T05:12:18;98635.38;;;18.89;50.95
65534;BME280;53640;55.838;37.184;2023-08-01T05:14:45;98584.09;;;18.61;50.72
65534;BME280;53640;55.838;37.184;2023-08-01T05:17:12;98549.16;;;18.47;50.30
65534;BME280;53640;55.838;37.184;2023-08-01T05:19:38;98611.75;;;18.93;50.33
65534;BME280;53640;55.838;37.184;2023-08-01T05:22:05;98619.63;;;19.00;49.89
65534;BME280;53640;55.838;37.184;2023-08-01T05:24:31;98666.13;;;19.39;49.47
65534;BME280;53640;55.838;37.184;2023-08-01T05:26:58;98677.47;;;19.52;49.49
65534;BME280;53640;55.838;37.184;2023-08-01T05:29:24;98682.56;;;19.63;48.76
65534;BME280;53640;55.838;37.184;2023-08-01T05:31:51;98586.88;;;19.09;47.82
65534;BME280;53640;55.838;37.184;2023-08-01T05:34:17;98663.56;;;19.67;47.84
65534;BME280;53640;55.838;37.184;2023-08-01T05:36:44;98669.16;;;19.81;47.01
65534;BME280;53640;55.838;37.184;2023-08-01T05:39:11;98659.19;;;19.85;47.68
65534;BME280;53640;55.838;37.184;2023-08-01T05:41:38;98669.38;;;20.03;46.92
65534;BME280;53640;55.838;37.184;2023-08-01T05:44:04;98642.28;;;19.96;46.92
65534;BME280;53640;55.838;37.184;2023-08-01T05:46:31;98643.31;;;20.01;46.63
65534;BME280;53640;55.838;37.184;2023-08-01T05:48:57;98695.81;;;20.37;46.63
65534;BME280;53640;55.838;37.184;2023-08-01T05:51:24;98682.53;;;20.44;47.38
65534;BME280;53640;55.838;37.184;2023-08-01T05:53:50;98665.81;;;20.40;46.15
65534;BME280;53640;55.838;37.184;2023-08-01T05:56:17;98693.47;;;20.63;46.26
65534;BME280;53640;55.838;37.184;2023-08-01T05:58:44;98663.63;;;20.56;46.26
65534;BME280;53640;55.838;37.184;2023-08-01T06:01:11;98679.84;;;20.72;44.60
65534;BME280;53640;55.838;37.184;2023-08-01T06:03:38;98685.53;;;20.94;44.84
65534;BME280;53640;55.838;37.184;2023-08-01T06:06:06;98655.16;;;20.85;45.06
65534;BME280;53640;55.838;37.184;2023-08-01T06:08:32;98678.22;;;21.03;44.78
65534;BME280;53640;55.838;37.184;2023-08-01T06:10:59;98681.78;;;21.17;43.89
65534;BME280;53640;55.838;37.184;2023-08-01T06:13:27;98684.13;;;21.24;43.92
65534;BME280;53640;55.838;37.184;2023-08-01T06:15:53;98682.72;;;21.40;44.12
65534;BME280;53640;55.838;37.184;2023-08-01T06:18:20;98653.88;;;21.38;43.81
65534;BME280;53640;55.838;37.184;2023-08-01T06:20:47;98632.56;;;21.30;42.65
65534;BME280;53640;55.838;37.184;2023-08-01T06:23:16;98688.66;;;21.75;42.68
65534;BME280;53640;55.838;37.184;2023-08-01T06:25:42;98685.34;;;21.87;42.35
65534;BME280;53640;55.838;37.184;2023-08-01T06:28:09;98671.66;;;21.96;42.22
65534;BME280;53640;55.838;37.184;2023-08-01T06:30:37;98658.97;;;22.08;42.36
65534;BME280;53640;55.838;37.184;2023-08-01T06:33:04;98647.91;;;22.22;42.79
65534;BME280;53640;55.838;37.184;2023-08-01T06:35:30;98696.91;;;22.70;42.45
65534;BME280;53640;55.838;37.184;2023-08-01T06:37:57;98667.53;;;22.66;41.13
65534;BME280;53640;55.838;37.184;2023-08-01T06:40:24;98676.47;;;22.71;41.13
65534;BME280;53640;55.838;37.184;2023-08-01T06:42:51;98663.88;;;22.79;40.76
65534;BME280;53640;55.838;37.184;2023-08-01T06:45:20;98665.56;;;22.89;41.50
65534;BME280;53640;55.838;37.184;2023-08-01T06:47:46;98686.97;;;23.14;40.92
65534;BME280;53640;55.838;37.184;2023-08-01T06:50:12;98651.69;;;23.02;39.86
65534;BME280;53640;55.838;37.184;2023-08-01T06:52:39;98684.59;;;23.30;38.98
65534;BME280;53640;55.838;37.184;2023-08-01T06:55:06;98599.16;;;22.85;38.98
65534;BME280;53640;55.838;37.184;2023-08-01T06:57:32;98663.47;;;23.25;38.36
65534;BME280;53640;55.838;37.184;2023-08-01T07:02:46;98629.81;;;23.15;37.80
65534;BME280;53640;55.838;37.184;2023-08-01T07:05:15;98644.31;;;23.29;37.94
65534;BME280;53640;55.838;37.184;2023-08-01T07:07:41;98655.44;;;23.46;38.03
65534;BME280;53640;55.838;37.184;2023-08-01T07:10:11;98684.59;;;23.70;37.13
65534;BME280;53640;55.838;37.184;2023-08-01T07:12:40;98641.63;;;23.46;37.19
65534;BME280;53640;55.838;37.184;2023-08-01T07:15:08;98625.69;;;23.43;36.74
65534;BME280;53640;55.838;37.184;2023-08-01T07:17:34;98608.75;;;23.36;37.03
65534;BME280;53640;55.838;37.184;2023-08-01T07:20:01;98662.00;;;23.68;36.40
65534;BME280;53640;55.838;37.184;2023-08-01T07:22:31;98681.09;;;24.04;36.64
65534;BME280;53640;55.838;37.184;2023-08-01T07:24:58;98708.44;;;24.23;35.97
65534;BME280;53640;55.838;37.184;2023-08-01T07:27:24;98701.91;;;24.36;36.53
65534;BME280;53640;55.838;37.184;2023-08-01T07:29:52;98715.25;;;24.51;36.78
65534;BME280;53640;55.838;37.184;2023-08-01T07:32:18;98711.50;;;24.56;35.37
65534;BME280;53640;55.838;37.184;2023-08-01T07:34:45;98704.88;;;24.66;35.37
65534;BME280;53640;55.838;37.184;2023-08-01T07:37:11;98691.53;;;24.68;35.12
65534;BME280;53640;55.838;37.184;2023-08-01T07:39:41;98698.81;;;24.81;35.32
65534;BME280;53640;55.838;37.184;2023-08-01T07:42:09;98703.84;;;24.88;34.89
65534;BME280;53640;55.838;37.184;2023-08-01T07:44:38;98690.28;;;25.04;34.91
65534;BME280;53640;55.838;37.184;2023-08-01T07:47:04;98698.91;;;25.11;34.45
65534;BME280;53640;55.838;37.184;2023-08-01T07:49:31;98702.00;;;25.18;34.33
65534;BME280;53640;55.838;37.184;2023-08-01T07:51:58;98700.78;;;25.36;34.26
65534;BME280;53640;55.838;37.184;2023-08-01T07:54:25;98680.44;;;25.32;33.77
65534;BME280;53640;55.838;37.184;2023-08-01T07:56:52;98695.34;;;25.48;33.54
65534;BME280;53640;55.838;37.184;2023-08-01T07:59:18;98688.56;;;25.67;33.53
65534;BME280;53640;55.838;37.184;2023-08-01T08:01:45;98677.13;;;25.68;33.60
65534;BME280;53640;55.838;37.184;2023-08-01T08:04:12;98674.81;;;25.79;32.98
65534;BME280;53640;55.838;37.184;2023-08-01T08:06:41;98656.25;;;25.71;33.14
65534;BME280;53640;55.838;37.184;2023-08-01T08:09:07;98686.31;;;25.90;32.95
65534;BME280;53640;55.838;37.184;2023-08-01T08:11:34;98662.72;;;25.84;32.46
65534;BME280;53640;55.838;37.184;2023-08-01T08:14:00;98699.53;;;26.14;32.23
65534;BME280;53640;55.838;37.184;2023-08-01T08:16:26;98651.00;;;25.99;32.22
65534;BME280;53640;55.838;37.184;2023-08-01T08:18:53;98682.56;;;26.36;31.61
65534;BME280;53640;55.838;37.184;2023-08-01T08:21:20;98687.69;;;26.47;31.52
65534;BME280;53640;55.838;37.184;2023-08-01T08:23:46;98687.56;;;26.64;31.68
65534;BME280;53640;55.838;37.184;2023-08-01T08:26:12;98634.16;;;26.46;31.73
65534;BME280;53640;55.838;37.184;2023-08-01T08:28:39;98690.44;;;27.01;31.78
65534;BME280;53640;55.838;37.184;2023-08-01T08:31:08;98657.00;;;26.97;31.56
65534;BME280;53640;55.838;37.184;2023-08-01T08:33:35;98656.91;;;27.18;30.69
65534;BME280;53640;55.838;37.184;2023-08-01T08:36:02;98685.78;;;27.50;30.70
65534;BME280;53640;55.838;37.184;2023-08-01T08:38:30;98654.94;;;27.31;30.62
65534;BME280;53640;55.838;37.184;2023-08-01T08:41:09;98668.97;;;27.59;29.93
65534;BME280;53640;55.838;37.184;2023-08-01T08:43:36;98640.47;;;27.62;29.88
65534;BME280;53640;55.838;37.184;2023-08-01T08:46:04;98667.78;;;27.84;29.62
65534;BME280;53640;55.838;37.184;2023-08-01T08:48:32;98655.88;;;27.84;29.36
65534;BME280;53640;55.838;37.184;2023-08-01T08:51:02;98629.56;;;27.81;29.31
65534;BME280;53640;55.838;37.184;2023-08-01T08:53:30;98667.16;;;28.16;29.41
65534;BME280;53640;55.838;37.184;2023-08-01T08:55:58;98670.31;;;28.42;29.09
65534;BME280;53640;55.838;37.184;2023-08-01T08:58:24;98668.13;;;28.48;29.24
65534;BME280;53640;55.838;37.184;2023-08-01T09:00:52;98663.53;;;28.27;29.25
65534;BME280;53640;55.838;37.184;2023-08-01T09:03:19;98639.44;;;28.19;29.58
65534;BME280;53640;55.838;37.184;2023-08-01T09:05:50;98644.63;;;28.33;28.78
65534;BME280;53640;55.838;37.184;2023-08-01T09:08:19;98683.50;;;28.86;29.09
65534;BME280;53640;55.838;37.184;2023-08-01T09:10:47;98647.09;;;28.78;28.26
65534;BME280;53640;55.838;37.184;2023-08-01T09:13:14;98673.94;;;29.30;28.36
65534;BME280;53640;55.838;37.184;2023-08-01T09:15:41;98639.09;;;29.40;27.29
65534;BME280;53640;55.838;37.184;2023-08-01T09:18:11;98636.94;;;29.65;26.73
65534;BME280;53640;55.838;37.184;2023-08-01T09:20:45;98637.16;;;30.31;25.47
65534;BME280;53640;55.838;37.184;2023-08-01T09:23:12;98640.25;;;30.06;25.75
65534;BME280;53640;55.838;37.184;2023-08-01T09:25:39;98651.13;;;30.31;26.57
65534;BME280;53640;55.838;37.184;2023-08-01T09:28:26;98666.44;;;30.56;25.11
65534;BME280;53640;55.838;37.184;2023-08-01T09:30:54;98667.41;;;30.87;25.04
65534;BME280;53640;55.838;37.184;2023-08-01T09:33:22;98647.50;;;31.11;25.01
65534;BME280;53640;55.838;37.184;2023-08-01T09:35:52;98662.97;;;31.51;25.03
65534;BME280;53640;55.838;37.184;2023-08-01T09:38:18;98653.59;;;31.66;24.58
65534;BME280;53640;55.838;37.184;2023-08-01T09:40:47;98660.91;;;32.01;23.66
65534;BME280;53640;55.838;37.184;2023-08-01T09:43:14;98631.69;;;31.99;22.98
65534;BME280;53640;55.838;37.184;2023-08-01T09:45:53;98647.84;;;32.42;23.34
65534;BME280;53640;55.838;37.184;2023-08-01T09:48:26;98653.28;;;32.62;22.81
65534;BME280;53640;55.838;37.184;2023-08-01T09:51:09;98619.25;;;32.63;22.99
65534;BME280;53640;55.838;37.184;2023-08-01T09:53:53;98642.56;;;33.08;22.65
65534;BME280;53640;55.838;37.184;2023-08-01T09:58:47;98614.44;;;33.49;20.91
65534;BME280;53640;55.838;37.184;2023-08-01T10:01:16;98613.72;;;33.67;21.44
65534;BME280;53640;55.838;37.184;2023-08-01T10:03:48;98621.56;;;33.95;21.77
65534;BME280;53640;55.838;37.184;2023-08-01T10:06:20;98626.88;;;34.18;20.80
65534;BME280;53640;55.838;37.184;2023-08-01T10:08:48;98641.47;;;34.52;20.16
65534;BME280;53640;55.838;37.184;2023-08-01T10:11:17;98642.34;;;34.77;20.54
65534;BME280;53640;55.838;37.184;2023-08-01T10:13:45;98597.75;;;34.83;20.32
65534;BME280;53640;55.838;37.184;2023-08-01T10:16:12;98625.53;;;35.02;19.48
65534;BME280;53640;55.838;37.184;2023-08-01T10:18:41;98624.31;;;35.07;19.60
65534;BME280;53640;55.838;37.184;2023-08-01T10:21:18;98589.34;;;35.19;19.34
65534;BME280;53640;55.838;37.184;2023-08-01T10:23:48;98610.28;;;35.25;19.10
65534;BME280;53640;55.838;37.184;2023-08-01T10:26:16;98610.66;;;34.95;19.73
65534;BME280;53640;55.838;37.184;2023-08-01T10:28:52;98614.13;;;34.31;19.92
65534;BME280;53640;55.838;37.184;2023-08-01T10:31:20;98610.47;;;34.30;20.16
65534;BME280;53640;55.838;37.184;2023-08-01T10:33:48;98621.81;;;34.63;19.99
65534;BME280;53640;55.838;37.184;2023-08-01T10:36:25;98627.47;;;34.70;19.91
65534;BME280;53640;55.838;37.184;2023-08-01T10:38:57;98601.78;;;34.75;20.31
65534;BME280;53640;55.838;37.184;2023-08-01T10:41:31;98600.97;;;34.78;19.66
65534;BME280;53640;55.838;37.184;2023-08-01T10:44:24;98617.38;;;34.47;20.22
65534;BME280;53640;55.838;37.184;2023-08-01T10:46:51;98623.41;;;34.64;20.48
65534;BME280;53640;55.838;37.184;2023-08-01T10:49:19;98570.84;;;34.82;20.07
65534;BME280;53640;55.838;37.184;2023-08-01T10:51:47;98603.41;;;35.47;19.73
65534;BME280;53640;55.838;37.184;2023-08-01T10:54:21;98598.47;;;35.91;19.19
65534;BME280;53640;55.838;37.184;2023-08-01T10:56:50;98553.50;;;35.66;18.69
65534;BME280;53640;55.838;37.184;2023-08-01T10:59:17;98602.41;;;36.18;18.76
65534;BME280;53640;55.838;37.184;2023-08-01T11:01:53;98614.59;;;35.87;18.82
65534;BME280;53640;55.838;37.184;2023-08-01T11:04:21;98622.72;;;35.17;19.44
65534;BME280;53640;55.838;37.184;2023-08-01T11:06:54;98614.16;;;34.56;20.07
65534;BME280;53640;55.838;37.184;2023-08-01T11:09:26;98585.66;;;34.57;19.68
65534;BME280;53640;55.838;37.184;2023-08-01T11:11:57;98605.81;;;35.17;19.43
65534;BME280;53640;55.838;37.184;2023-08-01T11:14:25;98590.13;;;35.51;19.26
65534;BME280;53640;55.838;37.184;2023-08-01T11:16:54;98575.13;;;35.94;18.75
65534;BME280;53640;55.838;37.184;2023-08-01T11:19:28;98585.63;;;35.83;18.75
65534;BME280;53640;55.838;37.184;2023-08-01T11:21:57;98572.84;;;35.28;19.30
65534;BME280;53640;55.838;37.184;2023-08-01T11:24:25;98613.41;;;35.77;19.40
65534;BME280;53640;55.838;37.184;2023-08-01T11:26:53;98582.78;;;35.93;18.62
65534;BME280;53640;55.838;37.184;2023-08-01T11:29:20;98591.06;;;36.29;18.51
65534;BME280;53640;55.838;37.184;2023-08-01T11:31:57;98599.81;;;36.56;18.08
65534;BME280;53640;55.838;37.184;2023-08-01T11:34:25;98591.28;;;35.79;19.10
65534;BME280;53640;55.838;37.184;2023-08-01T11:36:53;98594.56;;;35.35;19.50
65534;BME280;53640;55.838;37.184;2023-08-01T11:39:20;98587.72;;;34.78;19.60
65534;BME280;53640;55.838;37.184;2023-08-01T11:41:48;98565.03;;;34.10;20.40
65534;BME280;53640;55.838;37.184;2023-08-01T11:44:16;98598.59;;;33.78;21.17
65534;BME280;53640;55.838;37.184;2023-08-01T11:46:42;98552.69;;;32.94;21.46
65534;BME280;53640;55.838;37.184;2023-08-01T11:49:14;98594.44;;;33.06;21.74
65534;BME280;53640;55.838;37.184;2023-08-01T11:51:43;98581.56;;;32.98;22.27
65534;BME280;53640;55.838;37.184;2023-08-01T11:54:11;98578.72;;;32.54;21.96
65534;BME280;53640;55.838;37.184;2023-08-01T11:56:40;98593.34;;;32.36;22.30
65534;BME280;53640;55.838;37.184;2023-08-01T11:59:11;98599.28;;;31.98;22.88
65534;BME280;53640;55.838;37.184;2023-08-01T12:01:44;98591.63;;;31.64;23.46
65534;BME280;53640;55.838;37.184;2023-08-01T12:04:28;98592.50;;;31.45;23.80
65534;BME280;53640;55.838;37.184;2023-08-01T12:06:54;98557.75;;;31.73;23.69
65534;BME280;53640;55.838;37.184;2023-08-01T12:09:22;98562.41;;;32.26;23.04
65534;BME280;53640;55.838;37.184;2023-08-01T12:11:58;98546.78;;;32.62;23.09
65534;BME280;53640;55.838;37.184;2023-08-01T12:14:25;98564.47;;;33.10;22.45
65534;BME280;53640;55.838;37.184;2023-08-01T12:16:54;98552.34;;;33.58;22.67
65534;BME280;53640;55.838;37.184;2023-08-01T12:19:20;98571.56;;;34.32;22.24
65534;BME280;53640;55.838;37.184;2023-08-01T12:21:48;98566.00;;;34.72;21.50
65534;BME280;53640;55.838;37.184;2023-08-01T12:24:15;98575.22;;;34.51;21.47
65534;BME280;53640;55.838;37.184;2023-08-01T12:26:42;98540.09;;;33.95;21.34
65534;BME280;53640;55.838;37.184;2023-08-01T12:29:08;98569.28;;;33.76;21.57
65534;BME280;53640;55.838;37.184;2023-08-01T12:31:35;98569.97;;;33.55;21.83
65534;BME280;53640;55.838;37.184;2023-08-01T12:34:01;98543.47;;;33.45;21.89
65534;BME280;53640;55.838;37.184;2023-08-01T12:36:28;98512.88;;;33.29;21.19
65534;BME280;53640;55.838;37.184;2023-08-01T12:38:55;98536.09;;;33.99;21.52
65534;BME280;53640;55.838;37.184;2023-08-01T12:41:21;98555.97;;;34.78;20.89
65534;BME280;53640;55.838;37.184;2023-08-01T12:43:47;98555.19;;;34.88;20.11
65534;BME280;53640;55.838;37.184;2023-08-01T12:46:13;98517.75;;;34.30;20.06
65534;BME280;53640;55.838;37.184;2023-08-01T12:48:40;98539.31;;;33.98;21.27
65534;BME280;53640;55.838;37.184;2023-08-01T12:51:08;98549.09;;;33.49;21.13
65534;BME280;53640;55.838;37.184;2023-08-01T12:53:34;98531.00;;;33.43;21.33
65534;BME280;53640;55.838;37.184;2023-08-01T12:56:06;98553.81;;;33.34;21.40
65534;BME280;53640;55.838;37.184;2023-08-01T12:58:32;98514.16;;;32.87;21.72
65534;BME280;53640;55.838;37.184;2023-08-01T13:01:02;98539.19;;;33.07;21.38
65534;BME280;53640;55.838;37.184;2023-08-01T13:03:30;98545.09;;;33.53;21.30
65534;BME280;53640;55.838;37.184;2023-08-01T13:05:59;98518.69;;;33.65;21.44